Time;durP1;ratioP1;P1;durP2;ratioP2;P2;SDS_P1;SDS_P2;PMS_P1;PMS_P2;Temp;Humidity;BMP_temperature;BMP_pressure;BME280_temperature;BME280_humidity;BME280_pressure;Samples;Min_cycle;Max_cycle;Signal;HPM_P1;HPM_P2
2021/11/24 09:15:07;;;;;;;61.38;36.35;;;256.60;1740.80;;;;;;4850567;29;20057;-84
2021/11/24 09:17:34;;;;;;;38.95;26.88;;;307.40;1664.00;;;;;;4827935;29;20416;-83
2021/11/24 09:20:00;;;;;;;42.20;28.13;;;308.00;1510.40;;;;;;4827315;29;20422;-84
2021/11/24 09:22:26;;;;;;;41.10;27.25;;;333.00;1510.40;;;;;;4827455;29;20423;-83
2021/11/24 09:24:59;;;;;;;35.03;23.52;;;333.70;1382.40;;;;;;4827267;29;20463;-85
2021/11/24 09:27:34;;;;;;;34.55;23.73;;;358.50;1382.40;;;;;;4843738;29;20332;-83
2021/11/24 09:30:01;;;;;;;40.88;25.55;;;358.40;1331.20;;;;;;4827254;29;20495;-83
2021/11/24 09:32:28;;;;;;;41.47;27.10;;;384.90;1228.80;;;;;;4843257;29;20428;-82
2021/11/24 09:34:55;;;;;;;44.05;28.90;;;384.70;1203.20;;;;;;4843626;29;20400;-82
2021/11/24 09:37:21;;;;;;;68.05;36.45;;;435.50;1152.00;;;;;;4843626;29;20093;-79
2021/11/24 09:39:48;;;;;;;95.05;41.35;;;436.00;1100.80;;;;;;4843400;29;20397;-79
2021/11/24 09:42:17;;;;;;;56.20;29.95;;;436.10;1075.20;;;;;;4826508;29;20493;-86
2021/11/24 09:44:48;;;;;;;51.60;31.25;;;410.40;1126.40;;;;;;4827911;29;20427;-92
2021/11/24 09:47:16;;;;;;;76.03;50.95;;;384.80;1203.20;;;;;;4827811;29;20383;-92
2021/11/24 09:49:47;;;;;;;59.00;39.90;;;384.70;1228.80;;;;;;4827732;29;20041;-91
2021/11/24 09:52:14;;;;;;;37.38;27.42;;;460.90;1152.00;;;;;;4831396;29;20424;-90
2021/11/24 09:54:41;;;;;;;46.58;28.30;;;538.20;921.60;;;;;;4831369;29;20442;-90
2021/11/24 09:57:08;;;;;;;55.97;35.08;;;614.80;947.20;;;;;;4833262;29;20381;-92
2021/11/24 09:59:35;;;;;;;50.38;33.92;;;665.90;768.00;;;;;;4831104;29;20448;-90
2021/11/24 10:02:02;;;;;;;66.72;45.33;;;691.80;691.20;;;;;;4834047;29;20353;-92
2021/11/24 10:04:31;;;;;;;41.50;31.08;;;691.50;691.20;;;;;;4835429;29;20445;-93
2021/11/24 10:06:58;;;;;;;34.00;26.77;;;691.70;665.60;;;;;;4836169;29;20472;-93
2021/11/24 10:09:24;;;;;;;43.28;32.63;;;692.00;665.60;;;;;;4834613;29;20360;-91
2021/11/24 10:11:50;;;;;;;74.00;58.55;;;640.60;716.80;;;;;;4831264;29;20384;-93
2021/11/24 10:14:17;;;;;;;31.55;24.52;;;615.00;768.00;;;;;;4832560;29;20498;-92
2021/11/24 10:16:46;;;;;;;33.42;23.75;;;665.70;716.80;;;;;;4831710;29;20371;-92
2021/11/24 10:19:13;;;;;;;30.27;23.02;;;614.50;742.40;;;;;;4831583;29;20353;-91
2021/11/24 10:21:56;;;;;;;37.42;26.13;;;614.90;742.40;;;;;;4835267;29;20458;-93
2021/11/24 10:24:59;;;;;;;31.38;24.02;;;589.10;768.00;;;;;;4834389;29;20457;-92
2021/11/24 10:27:38;;;;;;;37.80;26.50;;;563.60;819.20;;;;;;4833664;29;20022;-93
2021/11/24 10:30:06;;;;;;;42.13;28.77;;;538.30;819.20;;;;;;4832492;29;20481;-93
2021/11/24 10:32:33;;;;;;;35.30;25.70;;;487.30;921.60;;;;;;4835324;29;20030;-93
2021/11/24 10:34:59;;;;;;;34.15;25.92;;;461.30;1024.00;;;;;;4830955;29;20383;-92
2021/11/24 10:37:31;;;;;;;27.25;20.83;;;435.60;1049.60;;;;;;4834772;29;20030;-93
2021/11/24 10:40:00;;;;;;;23.73;16.50;;;461.50;1024.00;;;;;;4817702;29;20417;-91
2021/11/24 10:42:44;;;;;;;23.73;18.27;;;486.60;947.20;;;;;;4831677;29;20037;-91
2021/11/24 10:45:21;;;;;;;26.50;18.85;;;461.20;972.80;;;;;;4830241;29;20356;-89
2021/11/24 10:47:57;;;;;;;25.02;19.48;;;486.90;921.60;;;;;;4829861;29;20510;-91
2021/11/24 10:50:33;;;;;;;32.70;22.25;;;487.00;921.60;;;;;;4829761;29;20444;-90
2021/11/24 10:53:00;;;;;;;26.05;19.02;;;563.20;870.40;;;;;;4830170;29;20396;-91
2021/11/24 10:55:36;;;;;;;21.83;18.92;;;589.20;819.20;;;;;;4829763;29;20440;-90
2021/11/24 10:58:15;;;;;;;29.33;24.25;;;615.00;742.40;;;;;;4830516;29;20360;-90
2021/11/24 11:00:45;;;;;;;28.02;21.17;;;589.70;742.40;;;;;;4830286;29;20386;-89
2021/11/24 11:03:12;;;;;;;34.20;23.35;;;487.20;921.60;;;;;;4829005;29;20444;-90
2021/11/24 11:05:42;;;;;;;19.40;16.52;;;460.80;1024.00;;;;;;4829687;29;20427;-90
2021/11/24 11:08:10;;;;;;;23.40;17.42;;;410.00;1075.20;;;;;;4829546;29;20372;-92
2021/11/24 11:10:49;;;;;;;21.65;17.05;;;359.30;1177.60;;;;;;4829538;29;20467;-91
2021/11/24 11:13:21;;;;;;;24.02;18.00;;;358.50;1280.00;;;;;;4829522;29;20385;-92
2021/11/24 11:15:50;;;;;;;21.75;17.00;;;333.00;1356.80;;;;;;4829982;29;20436;-92
2021/11/24 11:18:26;;;;;;;35.72;20.30;;;308.10;1356.80;;;;;;4829593;29;20379;-91
2021/11/24 11:21:15;;;;;;;30.35;24.23;;;307.80;1382.40;;;;;;4830286;29;20367;-92
2021/11/24 11:23:48;;;;;;;31.25;24.58;;;307.50;1408.00;;;;;;4829507;29;20367;-92
2021/11/24 11:26:18;;;;;;;23.25;17.63;;;307.50;1408.00;;;;;;4829427;29;20438;-91
2021/11/24 11:31:41;;;;;;;26.00;18.48;;;282.40;1433.60;;;;;;4859525;24;20061;-89
2021/11/24 12:33:32;;;;;;;23.75;16.42;;;461.10;1049.60;;;;;;4846553;29;20069;-95
2021/11/24 12:36:20;;;;;;;20.88;16.35;;;486.80;972.80;;;;;;4834135;29;20450;-95
2021/11/24 12:38:50;;;;;;;19.42;15.63;;;512.80;870.40;;;;;;4829821;29;20375;-94
2021/11/24 12:41:20;;;;;;;24.35;17.38;;;486.60;972.80;;;;;;4828286;29;20032;-95
2021/11/24 12:43:51;;;;;;;23.48;17.85;;;512.20;921.60;;;;;;4831153;29;20420;-96
2021/11/24 12:46:19;;;;;;;25.35;17.80;;;563.80;870.40;;;;;;4832533;29;20407;-96
2021/11/24 12:48:59;;;;;;;35.03;22.95;;;615.30;742.40;;;;;;4828772;29;20484;-95
2021/11/24 12:51:47;;;;;;;56.25;35.38;;;640.90;665.60;;;;;;4836020;29;20380;-96
2021/11/24 12:54:24;;;;;;;21.08;16.75;;;640.50;691.20;;;;;;4831021;29;20432;-96
2021/11/24 12:56:55;;;;;;;19.65;15.77;;;615.10;691.20;;;;;;4828743;29;20361;-96
2021/11/24 12:59:37;;;;;;;42.55;27.83;;;640.50;691.20;;;;;;4829979;29;20026;-96
2021/11/24 13:02:09;;;;;;;79.25;42.90;;;666.40;665.60;;;;;;4828065;29;20344;-95
2021/11/24 13:04:39;;;;;;;81.40;52.22;;;666.30;665.60;;;;;;4828614;29;20379;-96
2021/11/24 13:07:07;;;;;;;57.83;35.05;;;691.90;614.40;;;;;;4829173;29;20359;-95
2021/11/24 13:09:39;;;;;;;69.65;39.72;;;717.10;614.40;;;;;;4828794;29;20379;-95
2021/11/24 13:12:09;;;;;;;64.85;39.67;;;717.50;614.40;;;;;;4830717;29;20403;-96
2021/11/24 13:14:41;;;;;;;36.33;25.80;;;717.70;614.40;;;;;;4828078;29;20026;-95
2021/11/24 13:17:25;;;;;;;20.38;17.15;;;742.60;614.40;;;;;;4830024;29;20025;-96
2021/11/24 13:20:09;;;;;;;19.33;17.23;;;717.50;640.00;;;;;;4827807;29;20454;-96
2021/11/24 13:22:44;;;;;;;41.08;28.23;;;717.30;614.40;;;;;;4828482;29;20036;-96
2021/11/24 13:25:28;;;;;;;23.55;21.00;;;742.40;614.40;;;;;;4827833;29;20481;-94
2021/11/24 13:27:58;;;;;;;28.35;23.13;;;742.50;614.40;;;;;;4828528;29;20463;-96
2021/11/24 13:30:27;;;;;;;30.98;23.95;;;717.50;614.40;;;;;;4827685;29;20026;-94
2021/11/24 13:33:03;;;;;;;27.20;21.30;;;716.80;614.40;;;;;;4828192;29;20053;-95
2021/11/24 13:35:32;;;;;;;25.50;21.48;;;691.40;640.00;;;;;;4827999;29;20400;-95
2021/11/24 13:38:00;;;;;;;26.38;20.75;;;666.10;665.60;;;;;;4828184;29;20360;-95
2021/11/24 13:40:34;;;;;;;24.23;19.60;;;665.70;665.60;;;;;;4827950;29;20378;-95
2021/11/24 13:43:01;;;;;;;29.60;22.55;;;665.90;665.60;;;;;;4827798;29;20372;-95
2021/11/24 13:48:20;;;;;;;26.58;20.77;;;615.30;691.20;;;;;;4940228;24;20059;-72
2021/11/24 13:51:06;;;;;;;21.67;18.98;;;614.40;716.80;;;;;;4829530;29;20033;-71
2021/11/24 13:53:39;;;;;;;26.17;20.38;;;589.30;716.80;;;;;;4826189;29;20045;-71
2021/11/24 13:56:26;;;;;;;27.30;21.50;;;564.00;768.00;;;;;;4836319;29;20364;-72
2021/11/24 13:59:07;;;;;;;146.43;96.88;;;563.40;819.20;;;;;;4824116;29;20026;-70
2021/11/24 14:01:37;;;;;;;89.40;56.30;;;538.10;819.20;;;;;;4824268;29;20035;-71
2021/11/24 14:04:04;;;;;;;252.35;141.82;;;537.60;844.80;;;;;;4824255;29;20038;-71
2021/11/24 14:06:49;;;;;;;223.82;126.10;;;512.20;844.80;;;;;;4824200;29;20030;-71
2021/11/24 14:09:27;;;;;;;191.30;101.50;;;460.90;1049.60;;;;;;4816509;29;20039;-73
2021/11/24 14:12:14;;;;;;;51.50;35.17;;;410.20;1100.80;;;;;;4802229;29;20050;-71
2021/11/24 14:14:51;;;;;;;202.60;107.38;;;384.10;1152.00;;;;;;4822135;29;20023;-71
2021/11/24 14:17:32;;;;;;;212.93;105.72;;;358.60;1254.40;;;;;;4821287;29;20036;-71
2021/11/24 14:20:05;;;;;;;311.15;147.88;;;333.30;1305.60;;;;;;4820077;29;20041;-72
2021/11/24 14:23:07;;;;;;;81.45;47.85;;;332.90;1356.80;;;;;;4823368;29;20030;-71
2021/11/24 14:25:37;;;;;;;320.13;161.48;;;307.80;1356.80;;;;;;4820184;29;20408;-71
2021/11/24 14:28:11;;;;;;;166.82;80.28;;;307.40;1408.00;;;;;;4823785;29;20038;-72
2021/11/24 14:30:39;;;;;;;103.68;54.67;;;282.50;1433.60;;;;;;4824211;29;20387;-69
2021/11/24 14:33:04;;;;;;;86.93;48.38;;;282.20;1484.80;;;;;;4823505;29;20043;-78
2021/11/24 14:35:32;;;;;;;322.60;140.48;;;281.90;1510.40;;;;;;4823276;29;20041;-70
2021/11/24 14:37:58;;;;;;;123.50;61.08;;;281.70;1536.00;;;;;;4825247;29;20030;-70
2021/11/24 14:40:26;;;;;;;201.73;96.90;;;256.80;1536.00;;;;;;4826520;29;20506;-70
2021/11/24 14:42:54;;;;;;;102.65;55.47;;;256.60;1561.60;;;;;;4827112;29;20057;-70
2021/11/24 14:45:21;;;;;;;136.05;73.38;;;256.40;1587.20;;;;;;4826728;29;20497;-70
2021/11/24 14:47:47;;;;;;;166.82;90.18;;;256.20;1612.80;;;;;;4810450;29;20050;-70
2021/11/24 14:50:14;;;;;;;412.02;154.63;;;256.00;1638.40;;;;;;4826848;29;20484;-70
2021/11/24 14:52:42;;;;;;;242.75;98.80;;;231.30;1664.00;;;;;;4827361;29;20042;-72
2021/11/24 14:55:10;;;;;;;103.07;49.50;;;231.10;1689.60;;;;;;4826922;29;20391;-70
2021/11/24 14:57:37;;;;;;;353.83;138.00;;;231.00;1689.60;;;;;;4826186;29;20476;-69
2021/11/24 15:00:07;;;;;;;207.10;91.72;;;230.90;1715.20;;;;;;4825469;29;20034;-69
2021/11/24 15:02:34;;;;;;;711.00;350.58;;;230.70;1740.80;;;;;;4826267;29;20025;-69
2021/11/24 15:05:00;;;;;;;709.70;348.25;;;230.60;1766.40;;;;;;4822570;29;20109;-70
2021/11/24 15:07:25;;;;;;;406.58;152.80;;;230.50;1792.00;;;;;;4824935;29;20105;-69
2021/11/24 15:09:51;;;;;;;298.58;108.43;;;230.50;1792.00;;;;;;4824685;29;20034;-70
2021/11/24 15:12:17;;;;;;;168.32;66.38;;;230.40;1817.60;;;;;;4825666;29;20042;-70
2021/11/24 15:14:43;;;;;;;158.05;63.70;;;205.70;1843.20;;;;;;4826444;29;20030;-70
2021/11/24 15:17:09;;;;;;;93.38;40.63;;;205.50;1843.20;;;;;;4826343;29;20030;-70
2021/11/24 15:19:35;;;;;;;172.77;65.60;;;205.40;1843.20;;;;;;4825602;29;20034;-70
2021/11/24 15:22:00;;;;;;;127.32;49.83;;;205.30;1868.80;;;;;;4826150;29;20041;-70
2021/11/24 15:24:26;;;;;;;206.40;71.07;;;205.30;1894.40;;;;;;4825474;29;20038;-70
2021/11/24 15:26:52;;;;;;;133.27;50.30;;;205.20;1920.00;;;;;;4826108;29;20041;-70
2021/11/24 15:29:18;;;;;;;255.90;82.65;;;205.10;1920.00;;;;;;4825890;29;20027;-70
2021/11/24 15:31:47;;;;;;;269.70;87.30;;;205.00;1945.60;;;;;;4825538;29;20045;-70
2021/11/24 15:34:13;;;;;;;373.83;117.35;;;204.90;1971.20;;;;;;4825378;29;20116;-70
2021/11/24 15:36:40;;;;;;;358.90;117.22;;;204.90;1971.20;;;;;;4825957;29;20026;-70
2021/11/24 15:39:06;;;;;;;681.00;238.60;;;204.80;1971.20;;;;;;4825570;29;20475;-70
2021/11/24 15:41:32;;;;;;;389.05;127.80;;;204.80;1996.80;;;;;;4825960;29;20038;-70
2021/11/24 15:43:58;;;;;;;285.55;94.78;;;180.10;1996.80;;;;;;4826134;29;20082;-70
2021/11/24 15:46:25;;;;;;;359.88;115.22;;;180.10;1996.80;;;;;;4825603;29;20126;-70
2021/11/24 15:48:51;;;;;;;125.57;50.53;;;180.00;1996.80;;;;;;4825275;29;20041;-70
2021/11/24 15:51:19;;;;;;;266.35;89.05;;;179.90;1996.80;;;;;;4825701;29;20761;-70
2021/11/24 15:53:47;;;;;;;430.95;129.38;;;179.90;2022.40;;;;;;4825920;29;20042;-70
2021/11/24 15:56:13;;;;;;;298.48;93.18;;;179.80;2022.40;;;;;;4826301;29;20491;-70
2021/11/24 15:58:39;;;;;;;243.40;84.80;;;179.80;2048.00;;;;;;4809327;29;20038;-69
2021/11/24 16:01:05;;;;;;;321.40;115.75;;;179.70;2048.00;;;;;;4826971;29;20033;-70
2021/11/24 16:03:32;;;;;;;201.23;76.43;;;179.70;2048.00;;;;;;4825663;29;20038;-70
2021/11/24 16:05:58;;;;;;;91.68;45.10;;;179.60;2048.00;;;;;;4825980;29;20034;-69
2021/11/24 16:08:24;;;;;;;106.60;50.05;;;179.60;2073.60;;;;;;4825598;29;20034;-69
2021/11/24 16:10:51;;;;;;;108.75;49.67;;;179.50;2073.60;;;;;;4825053;29;20026;-70
2021/11/24 16:13:16;;;;;;;194.82;74.38;;;179.50;2073.60;;;;;;4825505;29;20042;-70
2021/11/24 16:15:45;;;;;;;263.10;109.13;;;179.40;2073.60;;;;;;4825706;29;20026;-70
2021/11/24 16:18:12;;;;;;;296.17;120.03;;;179.40;2099.20;;;;;;4824968;29;20030;-69
2021/11/24 16:20:38;;;;;;;597.47;220.75;;;179.30;2099.20;;;;;;4824912;29;20031;-69
2021/11/24 16:23:06;;;;;;;472.38;159.52;;;179.20;2124.80;;;;;;4826323;29;20425;-70
2021/11/24 16:25:33;;;;;;;235.60;87.53;;;179.30;2124.80;;;;;;4824983;29;20441;-70
2021/11/24 16:27:59;;;;;;;340.55;129.30;;;179.20;2124.80;;;;;;4824320;29;20095;-69
2021/11/24 16:30:25;;;;;;;307.25;122.75;;;154.50;2124.80;;;;;;4825248;29;20383;-70
2021/11/24 16:32:51;;;;;;;356.25;138.15;;;154.50;2124.80;;;;;;4825179;29;20042;-72
2021/11/24 16:35:17;;;;;;;347.95;152.57;;;154.50;2150.40;;;;;;4825430;29;20019;-71
2021/11/24 16:37:43;;;;;;;282.17;121.38;;;154.40;2150.40;;;;;;4825363;29;20526;-72
2021/11/24 16:40:10;;;;;;;176.57;93.68;;;154.30;2150.40;;;;;;4825917;29;20026;-72
2021/11/24 16:42:36;;;;;;;183.25;95.18;;;154.30;2176.00;;;;;;4825688;29;20026;-72
2021/11/24 16:45:04;;;;;;;228.93;109.50;;;154.20;2176.00;;;;;;4825756;29;20125;-73
2021/11/24 16:47:30;;;;;;;208.63;100.97;;;154.20;2201.60;;;;;;4825387;29;20054;-72
2021/11/24 16:49:56;;;;;;;208.77;100.07;;;154.10;2201.60;;;;;;4808224;29;20040;-72
2021/11/24 16:52:23;;;;;;;158.88;77.75;;;154.00;2227.20;;;;;;4808576;29;20046;-72
2021/11/24 16:54:49;;;;;;;138.85;72.90;;;153.90;2201.60;;;;;;4808633;29;20094;-73
2021/11/24 16:57:16;;;;;;;119.40;62.25;;;154.00;2201.60;;;;;;4826642;29;20022;-72
2021/11/24 16:59:42;;;;;;;108.45;58.83;;;153.90;2201.60;;;;;;4816067;29;20023;-72
2021/11/24 17:02:08;;;;;;;113.45;62.17;;;153.90;2201.60;;;;;;4814919;29;20053;-72
2021/11/24 17:04:34;;;;;;;121.00;71.43;;;153.80;2227.20;;;;;;4830988;29;20030;-72
2021/11/24 17:07:00;;;;;;;127.50;76.45;;;153.70;2227.20;;;;;;4831108;29;20038;-72
2021/11/24 17:09:27;;;;;;;115.95;71.88;;;153.70;2227.20;;;;;;4815165;29;20030;-73
2021/11/24 17:11:53;;;;;;;103.50;62.92;;;153.60;2227.20;;;;;;4831512;29;20041;-71
2021/11/24 17:14:19;;;;;;;125.43;71.72;;;153.60;2252.80;;;;;;4814276;29;20022;-72
2021/11/24 17:16:45;;;;;;;113.68;65.57;;;128.90;2252.80;;;;;;4816720;29;20505;-72
2021/11/24 17:19:11;;;;;;;103.63;60.70;;;128.90;2252.80;;;;;;4832390;29;20025;-72
2021/11/24 17:21:38;;;;;;;107.63;64.90;;;128.90;2252.80;;;;;;4823586;29;20082;-73
2021/11/24 17:24:06;;;;;;;114.47;67.60;;;128.80;2252.80;;;;;;4834308;29;20036;-74
2021/11/24 17:26:33;;;;;;;96.30;57.28;;;128.70;2252.80;;;;;;4819704;29;20057;-72
2021/11/24 17:29:00;;;;;;;88.60;51.10;;;128.70;2252.80;;;;;;4828538;29;20033;-73
2021/11/24 17:31:28;;;;;;;128.23;57.35;;;128.70;2252.80;;;;;;4825352;29;20037;-77
2021/11/24 17:33:54;;;;;;;845.05;278.65;;;128.70;2252.80;;;;;;4835012;29;20873;-72
2021/11/24 17:36:20;;;;;;;1119.57;377.35;;;128.70;2252.80;;;;;;4801074;29;20082;-72
2021/11/24 17:38:47;;;;;;;643.65;234.85;;;128.70;2252.80;;;;;;4831816;29;20053;-72
2021/11/24 17:41:12;;;;;;;491.55;179.43;;;128.50;2252.80;;;;;;4833020;29;20030;-71
2021/11/24 17:43:39;;;;;;;336.05;134.48;;;128.50;2252.80;;;;;;4822613;29;20395;-72
2021/11/24 17:46:05;;;;;;;278.10;120.57;;;128.50;2252.80;;;;;;4815046;29;20030;-72
2021/11/24 17:48:32;;;;;;;324.60;133.52;;;128.40;2252.80;;;;;;4816636;29;20042;-72
2021/11/24 17:50:59;;;;;;;241.70;117.57;;;128.50;2252.80;;;;;;4830466;29;20090;-72
2021/11/24 17:53:25;;;;;;;199.57;103.10;;;128.40;2252.80;;;;;;4832473;29;20476;-72
2021/11/24 17:55:51;;;;;;;165.68;92.75;;;128.40;2252.80;;;;;;4815327;29;20395;-72
2021/11/24 17:58:17;;;;;;;130.20;71.45;;;128.30;2252.80;;;;;;4816443;29;20034;-72
2021/11/24 18:00:45;;;;;;;111.88;63.58;;;128.30;2252.80;;;;;;4832327;29;20063;-72
2021/11/24 18:03:11;;;;;;;115.20;66.43;;;128.30;2252.80;;;;;;4814429;29;20042;-72
2021/11/24 18:05:37;;;;;;;114.50;62.90;;;128.40;2252.80;;;;;;4831866;29;20086;-73
2021/11/24 18:08:05;;;;;;;126.95;71.55;;;128.30;2252.80;;;;;;4809284;29;20034;-74
2021/11/24 18:10:31;;;;;;;107.65;59.85;;;128.00;2252.80;;;;;;4829987;29;20039;-73
2021/11/24 18:12:57;;;;;;;96.35;56.05;;;128.20;2252.80;;;;;;4830832;29;20071;-72
2021/11/24 18:15:23;;;;;;;102.43;55.28;;;128.20;2252.80;;;;;;4827105;29;20031;-73
2021/11/24 18:17:49;;;;;;;94.88;53.50;;;128.20;2252.80;;;;;;4827213;29;20062;-72
2021/11/24 18:20:18;;;;;;;101.63;59.38;;;128.10;2252.80;;;;;;4810384;29;20035;-73
2021/11/24 18:22:48;;;;;;;102.18;54.75;;;128.10;2252.80;;;;;;4815813;29;20039;-69
2021/11/24 18:25:15;;;;;;;103.13;57.15;;;128.10;2252.80;;;;;;4825967;29;20142;-71
2021/11/24 18:27:41;;;;;;;104.65;57.42;;;128.00;2252.80;;;;;;4827526;29;20038;-78
2021/11/24 18:30:08;;;;;;;109.13;63.78;;;128.00;2252.80;;;;;;4813497;29;20030;-78
2021/11/24 18:32:36;;;;;;;104.18;61.67;;;103.30;2227.20;;;;;;4830719;29;20046;-79
2021/11/24 18:35:03;;;;;;;100.60;58.40;;;103.20;2227.20;;;;;;4837742;29;20036;-79
2021/11/24 18:37:29;;;;;;;92.03;53.95;;;103.20;2227.20;;;;;;4816047;29;20034;-78
2021/11/24 18:39:57;;;;;;;103.72;55.88;;;103.10;2227.20;;;;;;4815526;29;20034;-79
2021/11/24 18:42:24;;;;;;;114.80;60.08;;;103.10;2227.20;;;;;;4828708;29;20030;-78
2021/11/24 18:44:49;;;;;;;107.50;59.60;;;103.10;2227.20;;;;;;4823756;29;20034;-78
2021/11/24 18:47:15;;;;;;;123.50;66.13;;;103.10;2227.20;;;;;;4824042;29;20042;-78
2021/11/24 18:49:41;;;;;;;123.82;67.32;;;103.10;2227.20;;;;;;4816088;29;20061;-79
2021/11/24 18:52:07;;;;;;;121.97;67.13;;;103.10;2227.20;;;;;;4820248;29;20055;-78
2021/11/24 18:54:35;;;;;;;110.75;63.80;;;103.00;2227.20;;;;;;4829537;29;20062;-78
2021/11/24 18:57:02;;;;;;;94.75;56.65;;;103.00;2227.20;;;;;;4813204;29;20030;-78
2021/11/24 18:59:28;;;;;;;95.60;54.25;;;103.00;2227.20;;;;;;4821494;29;20029;-78
2021/11/24 19:01:54;;;;;;;91.32;52.10;;;102.90;2227.20;;;;;;4821680;29;20049;-75
2021/11/24 19:04:20;;;;;;;85.05;51.22;;;102.90;2227.20;;;;;;4836223;29;20400;-75
2021/11/24 19:06:50;;;;;;;81.28;48.85;;;102.90;2227.20;;;;;;4828684;29;20029;-75
2021/11/24 19:09:16;;;;;;;89.88;52.70;;;102.90;2227.20;;;;;;4829540;29;20030;-75
2021/11/24 19:11:42;;;;;;;92.60;52.80;;;103.00;2227.20;;;;;;4845351;29;20034;-76
2021/11/24 19:14:08;;;;;;;97.00;53.55;;;102.80;2227.20;;;;;;4826590;29;20033;-76
2021/11/24 19:16:34;;;;;;;98.38;57.08;;;102.90;2227.20;;;;;;4810025;29;20033;-75
2021/11/24 19:19:01;;;;;;;101.30;58.80;;;102.90;2227.20;;;;;;4809558;29;20033;-76
2021/11/24 19:21:27;;;;;;;106.68;57.55;;;103.00;2227.20;;;;;;4832083;29;20114;-76
2021/11/24 19:23:53;;;;;;;112.60;60.87;;;103.10;2227.20;;;;;;4818574;29;20022;-76
2021/11/24 19:26:20;;;;;;;101.22;57.25;;;103.10;2227.20;;;;;;4819791;29;20090;-76
2021/11/24 19:28:46;;;;;;;96.55;53.55;;;103.00;2227.20;;;;;;4826141;29;20030;-76
2021/11/24 19:31:12;;;;;;;104.53;60.13;;;103.10;2227.20;;;;;;4809346;29;20479;-75
2021/11/24 19:33:38;;;;;;;94.23;54.57;;;103.00;2227.20;;;;;;4825647;29;20119;-76
2021/11/24 19:36:05;;;;;;;89.30;50.00;;;103.00;2227.20;;;;;;4810995;29;20308;-76
2021/11/24 19:38:31;;;;;;;80.27;46.23;;;103.00;2227.20;;;;;;4811794;29;20095;-76
2021/11/24 19:40:58;;;;;;;77.00;45.43;;;103.00;2227.20;;;;;;4825828;29;20031;-75
2021/11/24 19:43:26;;;;;;;76.45;44.72;;;102.90;2227.20;;;;;;4813842;29;20361;-76
2021/11/24 19:45:52;;;;;;;73.53;41.92;;;103.00;2227.20;;;;;;4811450;29;20033;-76
2021/11/24 19:48:18;;;;;;;75.30;42.30;;;103.10;2227.20;;;;;;4813247;29;20065;-76
2021/11/24 19:50:44;;;;;;;77.65;41.28;;;103.10;2227.20;;;;;;4813887;29;20030;-75
2021/11/24 19:53:11;;;;;;;76.80;41.72;;;103.10;2227.20;;;;;;4829563;29;20068;-76
2021/11/24 19:55:38;;;;;;;64.93;37.43;;;103.10;2227.20;;;;;;4827914;29;20029;-76
2021/11/24 19:58:05;;;;;;;65.97;38.70;;;103.10;2227.20;;;;;;4827756;29;20033;-76
2021/11/24 20:00:31;;;;;;;65.22;37.03;;;103.10;2227.20;;;;;;4813190;29;20026;-76
2021/11/24 20:02:58;;;;;;;62.23;37.57;;;103.10;2227.20;;;;;;4813253;29;20030;-76
2021/11/24 20:05:24;;;;;;;147.07;63.97;;;103.10;2227.20;;;;;;4829069;29;20038;-76
2021/11/24 20:07:51;;;;;;;376.03;130.13;;;103.10;2227.20;;;;;;4807838;29;20114;-76
2021/11/24 20:10:19;;;;;;;275.07;124.47;;;103.00;2227.20;;;;;;4808486;29;20030;-76
2021/11/24 20:12:46;;;;;;;194.80;100.03;;;102.90;2227.20;;;;;;4823680;29;20042;-76
2021/11/24 20:15:19;;;;;;;134.30;74.93;;;102.90;2227.20;;;;;;4808539;29;20128;-76
2021/11/24 20:17:45;;;;;;;106.37;64.23;;;102.80;2227.20;;;;;;4808932;29;20034;-77
2021/11/24 20:20:12;;;;;;;94.50;57.93;;;102.80;2227.20;;;;;;4809106;29;20075;-77
2021/11/24 20:22:40;;;;;;;77.60;47.75;;;102.80;2227.20;;;;;;4809540;29;20027;-79
2021/11/24 20:25:07;;;;;;;81.03;48.53;;;102.80;2227.20;;;;;;4810757;29;20027;-76
2021/11/24 20:27:34;;;;;;;75.80;44.67;;;102.80;2227.20;;;;;;4825653;29;20034;-76
2021/11/24 20:30:00;;;;;;;66.40;42.77;;;102.70;2227.20;;;;;;4809425;29;20022;-76
2021/11/24 20:32:26;;;;;;;61.27;36.93;;;102.70;2227.20;;;;;;4808785;29;20081;-76
2021/11/24 20:34:52;;;;;;;57.70;32.60;;;102.70;2227.20;;;;;;4808071;29;20050;-76
2021/11/24 20:37:18;;;;;;;60.30;33.77;;;102.70;2227.20;;;;;;4809227;29;20070;-76
2021/11/24 20:39:44;;;;;;;58.33;33.27;;;102.60;2227.20;;;;;;4809101;29;20061;-76
2021/11/24 20:42:11;;;;;;;61.63;32.03;;;102.60;2227.20;;;;;;4824619;29;20026;-76
2021/11/24 20:44:39;;;;;;;57.23;33.33;;;102.50;2227.20;;;;;;4824637;29;20054;-76
2021/11/24 20:47:05;;;;;;;57.03;30.47;;;102.60;2227.20;;;;;;4825459;29;20543;-76
2021/11/24 20:49:31;;;;;;;54.47;32.27;;;102.60;2227.20;;;;;;4824364;29;20035;-76
2021/11/24 20:51:58;;;;;;;51.87;32.33;;;102.50;2227.20;;;;;;4824844;29;20030;-76
2021/11/24 20:54:25;;;;;;;54.97;31.03;;;102.50;2227.20;;;;;;4824662;29;20061;-76
2021/11/24 20:56:52;;;;;;;52.43;29.07;;;102.50;2227.20;;;;;;4826051;29;20086;-76
2021/11/24 20:59:20;;;;;;;46.70;27.90;;;102.50;2227.20;;;;;;4824413;29;20388;-76
2021/11/24 21:01:45;;;;;;;45.67;27.53;;;102.40;2227.20;;;;;;4808383;29;20026;-77
2021/11/24 21:04:12;;;;;;;45.87;28.07;;;102.40;2227.20;;;;;;4810096;29;20022;-75
2021/11/24 21:06:38;;;;;;;43.03;27.30;;;102.40;2227.20;;;;;;4808864;29;20096;-75
2021/11/24 21:09:05;;;;;;;48.50;27.77;;;77.70;2227.20;;;;;;4808582;29;20046;-75
2021/11/24 21:11:32;;;;;;;45.90;26.03;;;77.70;2227.20;;;;;;4825130;29;20030;-75
2021/11/24 21:13:58;;;;;;;48.03;26.53;;;77.70;2227.20;;;;;;4809678;29;20479;-75
2021/11/24 21:16:24;;;;;;;49.20;30.07;;;77.60;2227.20;;;;;;4808480;29;20026;-75
2021/11/24 21:18:50;;;;;;;48.37;29.67;;;77.60;2227.20;;;;;;4825285;29;20042;-76
2021/11/24 21:21:16;;;;;;;48.40;28.40;;;77.60;2227.20;;;;;;4809097;29;20125;-75
2021/11/24 21:23:43;;;;;;;53.27;29.23;;;77.60;2227.20;;;;;;4825624;29;20030;-75
2021/11/24 21:26:11;;;;;;;48.83;28.63;;;77.50;2227.20;;;;;;4824967;29;20033;-75
2021/11/24 21:28:40;;;;;;;47.67;28.30;;;77.50;2227.20;;;;;;4808807;29;20038;-76
2021/11/24 21:31:13;;;;;;;47.77;27.03;;;77.50;2227.20;;;;;;4809362;29;20034;-75
2021/11/24 21:33:38;;;;;;;46.77;28.67;;;77.40;2227.20;;;;;;4825871;29;20095;-76
2021/11/24 21:36:04;;;;;;;48.33;28.43;;;77.40;2227.20;;;;;;4809907;29;20035;-75
2021/11/24 21:38:30;;;;;;;46.23;28.37;;;77.40;2227.20;;;;;;4825077;29;20050;-75
2021/11/24 21:40:56;;;;;;;52.13;30.03;;;77.40;2227.20;;;;;;4808190;29;20117;-75
2021/11/24 21:43:23;;;;;;;49.70;30.40;;;77.60;2227.20;;;;;;4808637;29;20114;-75
2021/11/24 21:45:49;;;;;;;49.97;29.27;;;77.40;2227.20;;;;;;4825873;29;20395;-76
2021/11/24 21:48:15;;;;;;;51.40;29.67;;;77.30;2227.20;;;;;;4825282;29;20178;-75
2021/11/24 21:50:41;;;;;;;53.90;32.03;;;77.20;2227.20;;;;;;4825319;29;20117;-75
2021/11/24 21:53:07;;;;;;;50.57;31.07;;;77.20;2227.20;;;;;;4824577;29;20042;-76
2021/11/24 21:55:33;;;;;;;52.10;31.27;;;77.20;2227.20;;;;;;4829734;29;20034;-79
2021/11/24 21:57:59;;;;;;;53.17;31.50;;;77.20;2227.20;;;;;;4814209;29;20090;-79
2021/11/24 22:00:28;;;;;;;52.20;31.40;;;77.20;2227.20;;;;;;4813204;29;20031;-79
2021/11/24 22:02:55;;;;;;;51.40;31.23;;;77.20;2227.20;;;;;;4815715;29;20058;-78
2021/11/24 22:05:28;;;;;;;51.80;30.13;;;77.20;2227.20;;;;;;4814230;29;20031;-76
2021/11/24 22:13:17;;;;;;;61.97;32.53;;;77.20;2227.20;;;;;;4831699;29;20039;-76
2021/11/24 22:15:47;;;;;;;53.70;30.40;;;77.10;2227.20;;;;;;4812321;29;20118;-76
2021/11/24 22:18:13;;;;;;;54.10;30.50;;;77.10;2227.20;;;;;;4825955;29;20023;-76
2021/11/24 22:20:39;;;;;;;53.83;31.37;;;77.10;2227.20;;;;;;4821125;29;20547;-78
2021/11/24 22:23:05;;;;;;;50.37;30.23;;;77.10;2227.20;;;;;;4822913;29;20042;-77
2021/11/24 22:25:32;;;;;;;51.80;30.10;;;77.00;2227.20;;;;;;4824448;29;20030;-80
2021/11/24 22:27:57;;;;;;;52.90;31.20;;;77.00;2227.20;;;;;;4838510;29;20062;-79